sensor_id;sensor_type;location;lat;lon;timestamp;temperature;humidity
21459;DHT22;10891;49.350;19.386;2023-04-06T00:00:33;-4.20;99.90
21459;DHT22;10891;49.350;19.386;2023-04-06T00:03:00;-4.40;99.90
21459;DHT22;10891;49.350;19.386;2023-04-06T00:05:27;-4.50;99.90
21459;DHT22;10891;49.350;19.386;2023-04-06T00:07:56;-4.70;99.90
21459;DHT22;10891;49.350;19.386;2023-04-06T00:10:23;-4.80;99.90
21459;DHT22;10891;49.350;19.386;2023-04-06T00:12:50;-4.90;99.90
21459;DHT22;10891;49.350;19.386;2023-04-06T00:15:19;-5.00;99.90
21459;DHT22;10891;49.350;19.386;2023-04-06T00:17:46;-5.10;99.90
21459;DHT22;10891;49.350;19.386;2023-04-06T00:20:13;-5.20;99.90
21459;DHT22;10891;49.350;19.386;2023-04-06T00:22:40;-5.20;99.90
21459;DHT22;10891;49.350;19.386;2023-04-06T00:25:08;-5.20;99.90
21459;DHT22;10891;49.350;19.386;2023-04-06T00:27:35;-5.30;99.90
21459;DHT22;10891;49.350;19.386;2023-04-06T00:30:03;-5.30;99.90
21459;DHT22;10891;49.350;19.386;2023-04-06T00:32:31;-5.30;99.90
21459;DHT22;10891;49.350;19.386;2023-04-06T00:34:58;-5.40;99.90
21459;DHT22;10891;49.350;19.386;2023-04-06T00:37:25;-5.40;99.90
21459;DHT22;10891;49.350;19.386;2023-04-06T00:39:52;-5.40;99.90
21459;DHT22;10891;49.350;19.386;2023-04-06T00:42:21;-5.50;99.90
21459;DHT22;10891;49.350;19.386;2023-04-06T00:44:51;-5.50;99.90
21459;DHT22;10891;49.350;19.386;2023-04-06T00:47:18;-5.50;99.90
21459;DHT22;10891;49.350;19.386;2023-04-06T00:49:47;-5.50;99.90
21459;DHT22;10891;49.350;19.386;2023-04-06T00:52:14;-5.60;99.90
21459;DHT22;10891;49.350;19.386;2023-04-06T00:54:41;-5.60;99.90
21459;DHT22;10891;49.350;19.386;2023-04-06T00:57:08;-5.60;99.90
21459;DHT22;10891;49.350;19.386;2023-04-06T00:59:36;-5.70;99.90
21459;DHT22;10891;49.350;19.386;2023-04-06T01:02:03;-5.70;99.90
21459;DHT22;10891;49.350;19.386;2023-04-06T01:04:30;-5.70;99.90
21459;DHT22;10891;49.350;19.386;2023-04-06T01:06:59;-5.70;99.90
21459;DHT22;10891;49.350;19.386;2023-04-06T01:09:27;-5.70;99.90
21459;DHT22;10891;49.350;19.386;2023-04-06T01:11:55;-5.70;99.90
21459;DHT22;10891;49.350;19.386;2023-04-06T01:14:22;-5.70;99.90
21459;DHT22;10891;49.350;19.386;2023-04-06T01:16:49;-5.60;99.90
21459;DHT22;10891;49.350;19.386;2023-04-06T01:19:16;-5.70;99.90
21459;DHT22;10891;49.350;19.386;2023-04-06T01:21:43;-5.70;99.90
21459;DHT22;10891;49.350;19.386;2023-04-06T01:24:12;-5.70;99.90
21459;DHT22;10891;49.350;19.386;2023-04-06T01:26:39;-5.70;99.90
21459;DHT22;10891;49.350;19.386;2023-04-06T01:29:06;-5.70;99.90
21459;DHT22;10891;49.350;19.386;2023-04-06T01:31:33;-5.70;99.90
21459;DHT22;10891;49.350;19.386;2023-04-06T01:34:00;-5.70;99.90
21459;DHT22;10891;49.350;19.386;2023-04-06T01:36:27;-5.70;99.90
21459;DHT22;10891;49.350;19.386;2023-04-06T01:38:55;-5.80;99.90
21459;DHT22;10891;49.350;19.386;2023-04-06T01:41:23;-5.80;99.90
21459;DHT22;10891;49.350;19.386;2023-04-06T01:43:50;-5.90;99.90
21459;DHT22;10891;49.350;19.386;2023-04-06T01:46:20;-5.90;99.90
21459;DHT22;10891;49.350;19.386;2023-04-06T01:48:47;-5.90;99.90
21459;DHT22;10891;49.350;19.386;2023-04-06T01:51:14;-5.90;99.90
21459;DHT22;10891;49.350;19.386;2023-04-06T01:53:41;-6.00;99.90
21459;DHT22;10891;49.350;19.386;2023-04-06T01:56:08;-6.00;99.90
21459;DHT22;10891;49.350;19.386;2023-04-06T01:58:37;-6.00;99.90
21459;DHT22;10891;49.350;19.386;2023-04-06T02:01:04;-6.00;99.90
21459;DHT22;10891;49.350;19.386;2023-04-06T02:03:31;-6.00;99.90
21459;DHT22;10891;49.350;19.386;2023-04-06T02:05:58;-6.00;99.90
21459;DHT22;10891;49.350;19.386;2023-04-06T02:08:25;-6.10;99.90
21459;DHT22;10891;49.350;19.386;2023-04-06T02:10:52;-6.10;99.90
21459;DHT22;10891;49.350;19.386;2023-04-06T02:13:19;-6.10;99.90
21459;DHT22;10891;49.350;19.386;2023-04-06T02:15:47;-6.20;99.90
21459;DHT22;10891;49.350;19.386;2023-04-06T02:18:14;-6.20;99.90
21459;DHT22;10891;49.350;19.386;2023-04-06T02:20:43;-6.20;99.90
21459;DHT22;10891;49.350;19.386;2023-04-06T02:23:10;-6.20;99.90
21459;DHT22;10891;49.350;19.386;2023-04-06T02:25:37;-6.20;99.90
21459;DHT22;10891;49.350;19.386;2023-04-06T02:28:04;-6.20;99.90
21459;DHT22;10891;49.350;19.386;2023-04-06T02:30:31;-6.20;99.90
21459;DHT22;10891;49.350;19.386;2023-04-06T02:32:59;-6.30;99.90
21459;DHT22;10891;49.350;19.386;2023-04-06T02:35:28;-6.30;99.90
21459;DHT22;10891;49.350;19.386;2023-04-06T02:37:55;-6.40;99.90
21459;DHT22;10891;49.350;19.386;2023-04-06T02:40:22;-6.40;99.90
21459;DHT22;10891;49.350;19.386;2023-04-06T02:42:49;-6.40;99.90
21459;DHT22;10891;49.350;19.386;2023-04-06T02:45:16;-6.40;99.90
21459;DHT22;10891;49.350;19.386;2023-04-06T02:47:44;-6.50;99.90
21459;DHT22;10891;49.350;19.386;2023-04-06T02:50:13;-6.50;99.90
21459;DHT22;10891;49.350;19.386;2023-04-06T02:52:40;-6.50;99.90
21459;DHT22;10891;49.350;19.386;2023-04-06T02:55:08;-6.50;99.90
21459;DHT22;10891;49.350;19.386;2023-04-06T02:57:35;-6.50;99.90
21459;DHT22;10891;49.350;19.386;2023-04-06T03:00:02;-6.50;99.90
21459;DHT22;10891;49.350;19.386;2023-04-06T03:02:29;-6.50;99.90
21459;DHT22;10891;49.350;19.386;2023-04-06T03:04:56;-6.50;99.90
21459;DHT22;10891;49.350;19.386;2023-04-06T03:07:24;-6.50;99.90
21459;DHT22;10891;49.350;19.386;2023-04-06T03:09:51;-6.50;99.90
21459;DHT22;10891;49.350;19.386;2023-04-06T03:12:18;-6.50;99.90
21459;DHT22;10891;49.350;19.386;2023-04-06T03:14:45;-6.50;99.90
21459;DHT22;10891;49.350;19.386;2023-04-06T03:17:12;-6.50;99.90
21459;DHT22;10891;49.350;19.386;2023-04-06T03:19:39;-6.50;99.90
21459;DHT22;10891;49.350;19.386;2023-04-06T03:22:06;-6.50;99.90
21459;DHT22;10891;49.350;19.386;2023-04-06T03:24:34;-6.50;99.90
21459;DHT22;10891;49.350;19.386;2023-04-06T03:27:01;-6.50;99.90
21459;DHT22;10891;49.350;19.386;2023-04-06T03:29:28;-6.50;99.90
21459;DHT22;10891;49.350;19.386;2023-04-06T03:31:55;-6.40;99.90
21459;DHT22;10891;49.350;19.386;2023-04-06T03:34:22;-6.40;99.90
21459;DHT22;10891;49.350;19.386;2023-04-06T03:36:49;-6.50;99.90
21459;DHT22;10891;49.350;19.386;2023-04-06T03:39:16;-6.50;99.90
21459;DHT22;10891;49.350;19.386;2023-04-06T03:41:44;-6.40;99.90
21459;DHT22;10891;49.350;19.386;2023-04-06T03:44:11;-6.40;99.90
21459;DHT22;10891;49.350;19.386;2023-04-06T03:46:38;-6.40;99.90
21459;DHT22;10891;49.350;19.386;2023-04-06T03:49:05;-6.50;99.90
21459;DHT22;10891;49.350;19.386;2023-04-06T03:51:32;-6.50;99.90
21459;DHT22;10891;49.350;19.386;2023-04-06T03:53:59;-6.50;99.90
21459;DHT22;10891;49.350;19.386;2023-04-06T03:56:26;-6.40;99.90
21459;DHT22;10891;49.350;19.386;2023-04-06T03:58:55;-6.40;99.90
21459;DHT22;10891;49.350;19.386;2023-04-06T04:01:22;-6.40;99.90
21459;DHT22;10891;49.350;19.386;2023-04-06T04:03:49;-6.40;99.90
21459;DHT22;10891;49.350;19.386;2023-04-06T04:06:16;-6.40;99.90
21459;DHT22;10891;49.350;19.386;2023-04-06T04:08:43;-6.40;99.90
21459;DHT22;10891;49.350;19.386;2023-04-06T04:11:10;-6.40;99.90
21459;DHT22;10891;49.350;19.386;2023-04-06T04:13:37;-6.40;99.90
21459;DHT22;10891;49.350;19.386;2023-04-06T04:16:06;-6.30;99.90
21459;DHT22;10891;49.350;19.386;2023-04-06T04:18:33;-6.40;99.90
21459;DHT22;10891;49.350;19.386;2023-04-06T04:21:00;-6.30;99.90
21459;DHT22;10891;49.350;19.386;2023-04-06T04:23:27;-6.30;99.90
21459;DHT22;10891;49.350;19.386;2023-04-06T04:25:53;-6.30;99.90
21459;DHT22;10891;49.350;19.386;2023-04-06T04:28:21;-6.20;99.90
21459;DHT22;10891;49.350;19.386;2023-04-06T04:30:48;-6.10;99.90
21459;DHT22;10891;49.350;19.386;2023-04-06T04:33:17;-6.00;99.90
21459;DHT22;10891;49.350;19.386;2023-04-06T04:35:44;-5.90;99.90
21459;DHT22;10891;49.350;19.386;2023-04-06T04:38:11;-5.90;99.90
21459;DHT22;10891;49.350;19.386;2023-04-06T04:40:38;-5.70;99.90
21459;DHT22;10891;49.350;19.386;2023-04-06T04:43:05;-5.70;99.90
21459;DHT22;10891;49.350;19.386;2023-04-06T04:45:32;-5.50;99.90
21459;DHT22;10891;49.350;19.386;2023-04-06T04:47:59;-5.40;99.90
21459;DHT22;10891;49.350;19.386;2023-04-06T04:50:27;-5.40;99.90
21459;DHT22;10891;49.350;19.386;2023-04-06T04:52:54;-5.20;99.90
21459;DHT22;10891;49.350;19.386;2023-04-06T04:55:21;-5.00;99.90
21459;DHT22;10891;49.350;19.386;2023-04-06T04:57:48;-4.80;99.90
21459;DHT22;10891;49.350;19.386;2023-04-06T05:00:16;-4.50;99.90
21459;DHT22;10891;49.350;19.386;2023-04-06T05:02:43;-4.30;99.90
21459;DHT22;10891;49.350;19.386;2023-04-06T05:05:11;-4.10;99.90
21459;DHT22;10891;49.350;19.386;2023-04-06T05:07:39;-3.90;99.90
21459;DHT22;10891;49.350;19.386;2023-04-06T05:10:07;-3.70;99.90
21459;DHT22;10891;49.350;19.386;2023-04-06T05:12:34;-3.50;99.90
21459;DHT22;10891;49.350;19.386;2023-04-06T05:15:02;-3.30;99.90
21459;DHT22;10891;49.350;19.386;2023-04-06T05:17:30;-3.10;99.90
21459;DHT22;10891;49.350;19.386;2023-04-06T05:19:57;-2.90;99.90
21459;DHT22;10891;49.350;19.386;2023-04-06T05:22:24;-2.80;99.90
21459;DHT22;10891;49.350;19.386;2023-04-06T05:24:53;-2.60;99.90
21459;DHT22;10891;49.350;19.386;2023-04-06T05:27:20;-2.50;99.90
21459;DHT22;10891;49.350;19.386;2023-04-06T05:29:47;-2.30;99.90
21459;DHT22;10891;49.350;19.386;2023-04-06T05:32:14;-2.30;99.90
21459;DHT22;10891;49.350;19.386;2023-04-06T05:34:41;-2.10;99.90
21459;DHT22;10891;49.350;19.386;2023-04-06T05:37:08;-2.00;99.90
21459;DHT22;10891;49.350;19.386;2023-04-06T05:39:36;-2.00;99.90
21459;DHT22;10891;49.350;19.386;2023-04-06T05:42:06;-2.00;99.90
21459;DHT22;10891;49.350;19.386;2023-04-06T05:44:33;-1.80;99.90
21459;DHT22;10891;49.350;19.386;2023-04-06T05:47:01;-1.70;99.90
21459;DHT22;10891;49.350;19.386;2023-04-06T05:49:28;-1.80;99.90
21459;DHT22;10891;49.350;19.386;2023-04-06T05:51:55;-1.70;99.90
21459;DHT22;10891;49.350;19.386;2023-04-06T05:54:22;-1.50;99.90
21459;DHT22;10891;49.350;19.386;2023-04-06T05:56:49;-1.40;99.90
21459;DHT22;10891;49.350;19.386;2023-04-06T05:59:17;-1.20;99.90
21459;DHT22;10891;49.350;19.386;2023-04-06T06:01:44;-1.20;99.90
21459;DHT22;10891;49.350;19.386;2023-04-06T06:04:11;-1.50;99.90
21459;DHT22;10891;49.350;19.386;2023-04-06T06:06:38;-1.80;99.90
21459;DHT22;10891;49.350;19.386;2023-04-06T06:09:05;-1.80;99.90
21459;DHT22;10891;49.350;19.386;2023-04-06T06:11:32;-1.90;99.90
21459;DHT22;10891;49.350;19.386;2023-04-06T06:13:59;-1.70;99.90
21459;DHT22;10891;49.350;19.386;2023-04-06T06:16:28;-2.00;99.90
21459;DHT22;10891;49.350;19.386;2023-04-06T06:18:55;-1.90;99.90
21459;DHT22;10891;49.350;19.386;2023-04-06T06:21:22;-1.80;99.90
21459;DHT22;10891;49.350;19.386;2023-04-06T06:23:49;-1.70;99.90
21459;DHT22;10891;49.350;19.386;2023-04-06T06:26:16;-1.60;99.90
21459;DHT22;10891;49.350;19.386;2023-04-06T06:28:43;-1.50;99.90
21459;DHT22;10891;49.350;19.386;2023-04-06T06:31:10;-1.40;99.90
21459;DHT22;10891;49.350;19.386;2023-04-06T06:33:39;-1.40;99.90
21459;DHT22;10891;49.350;19.386;2023-04-06T06:36:06;-1.20;99.90
21459;DHT22;10891;49.350;19.386;2023-04-06T06:38:33;-1.30;99.90
21459;DHT22;10891;49.350;19.386;2023-04-06T06:41:00;-1.20;99.90
21459;DHT22;10891;49.350;19.386;2023-04-06T06:43:27;-1.40;99.90
21459;DHT22;10891;49.350;19.386;2023-04-06T06:45:54;-1.30;99.90
21459;DHT22;10891;49.350;19.386;2023-04-06T06:48:21;-1.20;99.90
21459;DHT22;10891;49.350;19.386;2023-04-06T06:50:50;-1.10;99.90
21459;DHT22;10891;49.350;19.386;2023-04-06T06:53:16;-1.00;99.90
21459;DHT22;10891;49.350;19.386;2023-04-06T06:55:43;-0.70;99.90
21459;DHT22;10891;49.350;19.386;2023-04-06T06:58:10;-0.80;99.90
21459;DHT22;10891;49.350;19.386;2023-04-06T07:00:37;-0.50;99.90
21459;DHT22;10891;49.350;19.386;2023-04-06T07:03:05;-0.30;99.90
21459;DHT22;10891;49.350;19.386;2023-04-06T07:05:32;-0.40;99.90
21459;DHT22;10891;49.350;19.386;2023-04-06T07:08:00;-0.10;99.90
21459;DHT22;10891;49.350;19.386;2023-04-06T07:10:27;-0.20;99.90
21459;DHT22;10891;49.350;19.386;2023-04-06T07:12:54;-0.40;99.90
21459;DHT22;10891;49.350;19.386;2023-04-06T07:15:21;-0.30;99.90
21459;DHT22;10891;49.350;19.386;2023-04-06T07:17:48;-0.10;99.90
21459;DHT22;10891;49.350;19.386;2023-04-06T07:20:15;0.10;99.90
21459;DHT22;10891;49.350;19.386;2023-04-06T07:22:43;-0.10;99.90
21459;DHT22;10891;49.350;19.386;2023-04-06T07:25:12;-0.30;99.90
21459;DHT22;10891;49.350;19.386;2023-04-06T07:27:40;-0.40;99.90
21459;DHT22;10891;49.350;19.386;2023-04-06T07:30:08;-0.60;99.90
21459;DHT22;10891;49.350;19.386;2023-04-06T07:32:35;-0.50;99.90
21459;DHT22;10891;49.350;19.386;2023-04-06T07:35:04;-0.70;99.90
21459;DHT22;10891;49.350;19.386;2023-04-06T07:37:32;-0.50;99.90
21459;DHT22;10891;49.350;19.386;2023-04-06T07:39:59;-0.70;99.90
21459;DHT22;10891;49.350;19.386;2023-04-06T07:42:28;-0.80;99.90
21459;DHT22;10891;49.350;19.386;2023-04-06T07:44:55;-0.70;99.90
21459;DHT22;10891;49.350;19.386;2023-04-06T07:47:23;-0.80;99.90
21459;DHT22;10891;49.350;19.386;2023-04-06T07:49:50;-0.90;99.90
21459;DHT22;10891;49.350;19.386;2023-04-06T07:52:17;-0.90;99.90
21459;DHT22;10891;49.350;19.386;2023-04-06T07:54:44;-0.80;99.90
21459;DHT22;10891;49.350;19.386;2023-04-06T07:57:12;-0.80;99.90
21459;DHT22;10891;49.350;19.386;2023-04-06T07:59:41;-0.80;99.90
21459;DHT22;10891;49.350;19.386;2023-04-06T08:02:08;-0.90;99.90
21459;DHT22;10891;49.350;19.386;2023-04-06T08:04:35;-0.70;99.90
21459;DHT22;10891;49.350;19.386;2023-04-06T08:07:02;-1.00;99.90
21459;DHT22;10891;49.350;19.386;2023-04-06T08:09:29;-0.90;99.90
21459;DHT22;10891;49.350;19.386;2023-04-06T08:11:56;-0.80;99.90
21459;DHT22;10891;49.350;19.386;2023-04-06T08:14:23;-1.00;99.90
21459;DHT22;10891;49.350;19.386;2023-04-06T08:16:52;-1.00;99.90
21459;DHT22;10891;49.350;19.386;2023-04-06T08:19:19;-0.80;99.90
21459;DHT22;10891;49.350;19.386;2023-04-06T08:21:46;-1.00;99.90
21459;DHT22;10891;49.350;19.386;2023-04-06T08:24:14;-0.90;99.90
21459;DHT22;10891;49.350;19.386;2023-04-06T08:26:41;-1.10;99.90
21459;DHT22;10891;49.350;19.386;2023-04-06T08:29:08;-0.90;99.90
21459;DHT22;10891;49.350;19.386;2023-04-06T08:31:35;-1.10;99.90
21459;DHT22;10891;49.350;19.386;2023-04-06T08:34:04;-1.20;99.90
21459;DHT22;10891;49.350;19.386;2023-04-06T08:36:32;-1.00;99.90
21459;DHT22;10891;49.350;19.386;2023-04-06T08:38:59;-1.10;99.90
21459;DHT22;10891;49.350;19.386;2023-04-06T08:41:27;-1.00;99.90
21459;DHT22;10891;49.350;19.386;2023-04-06T08:43:59;-0.90;99.90
21459;DHT22;10891;49.350;19.386;2023-04-06T08:46:27;-0.60;99.90
21459;DHT22;10891;49.350;19.386;2023-04-06T08:48:56;-0.40;99.90
21459;DHT22;10891;49.350;19.386;2023-04-06T08:51:25;-0.60;99.90
21459;DHT22;10891;49.350;19.386;2023-04-06T08:53:53;-0.40;99.90
21459;DHT22;10891;49.350;19.386;2023-04-06T08:56:21;-0.40;99.90
21459;DHT22;10891;49.350;19.386;2023-04-06T08:58:49;-0.50;99.90
21459;DHT22;10891;49.350;19.386;2023-04-06T09:01:20;-0.40;99.90
21459;DHT22;10891;49.350;19.386;2023-04-06T09:03:49;-0.60;99.90
21459;DHT22;10891;49.350;19.386;2023-04-06T09:06:17;-0.80;99.90
21459;DHT22;10891;49.350;19.386;2023-04-06T09:08:46;-0.70;99.90
21459;DHT22;10891;49.350;19.386;2023-04-06T09:11:14;-0.50;99.90
21459;DHT22;10891;49.350;19.386;2023-04-06T09:13:45;-0.30;99.90
21459;DHT22;10891;49.350;19.386;2023-04-06T09:16:13;0.10;99.90
21459;DHT22;10891;49.350;19.386;2023-04-06T09:18:40;0.10;99.90
21459;DHT22;10891;49.350;19.386;2023-04-06T09:21:07;0.40;99.90
21459;DHT22;10891;49.350;19.386;2023-04-06T09:23:35;0.40;99.90
21459;DHT22;10891;49.350;19.386;2023-04-06T09:26:09;0.50;99.90
21459;DHT22;10891;49.350;19.386;2023-04-06T09:28:47;0.50;99.90
21459;DHT22;10891;49.350;19.386;2023-04-06T09:31:15;1.00;99.90
21459;DHT22;10891;49.350;19.386;2023-04-06T09:33:45;1.10;99.90
21459;DHT22;10891;49.350;19.386;2023-04-06T09:36:12;1.30;99.90
21459;DHT22;10891;49.350;19.386;2023-04-06T09:38:52;1.50;99.90
21459;DHT22;10891;49.350;19.386;2023-04-06T09:41:26;1.70;99.90
21459;DHT22;10891;49.350;19.386;2023-04-06T09:44:02;1.20;99.90
21459;DHT22;10891;49.350;19.386;2023-04-06T09:46:31;0.70;99.90
21459;DHT22;10891;49.350;19.386;2023-04-06T09:49:00;0.80;99.90
21459;DHT22;10891;49.350;19.386;2023-04-06T09:51:30;1.30;99.90
21459;DHT22;10891;49.350;19.386;2023-04-06T09:53:59;1.30;99.90
21459;DHT22;10891;49.350;19.386;2023-04-06T09:56:33;1.20;99.90
21459;DHT22;10891;49.350;19.386;2023-04-06T09:59:09;1.20;99.90
21459;DHT22;10891;49.350;19.386;2023-04-06T10:01:39;1.00;99.90
21459;DHT22;10891;49.350;19.386;2023-04-06T10:04:26;1.00;99.90
21459;DHT22;10891;49.350;19.386;2023-04-06T10:06:57;1.20;99.90
21459;DHT22;10891;49.350;19.386;2023-04-06T10:09:27;1.40;99.90
21459;DHT22;10891;49.350;19.386;2023-04-06T10:11:58;2.00;99.90
21459;DHT22;10891;49.350;19.386;2023-04-06T10:14:25;2.30;99.90
21459;DHT22;10891;49.350;19.386;2023-04-06T10:16:52;1.90;99.90
21459;DHT22;10891;49.350;19.386;2023-04-06T10:19:27;1.60;99.90
21459;DHT22;10891;49.350;19.386;2023-04-06T10:21:58;1.60;99.90
21459;DHT22;10891;49.350;19.386;2023-04-06T10:24:27;1.70;99.90
21459;DHT22;10891;49.350;19.386;2023-04-06T10:27:01;1.50;99.90
21459;DHT22;10891;49.350;19.386;2023-04-06T10:29:41;1.50;99.90
21459;DHT22;10891;49.350;19.386;2023-04-06T10:32:09;1.60;99.90
21459;DHT22;10891;49.350;19.386;2023-04-06T10:34:36;1.70;99.90
21459;DHT22;10891;49.350;19.386;2023-04-06T10:37:12;1.70;99.90
21459;DHT22;10891;49.350;19.386;2023-04-06T10:39:52;1.70;99.90
21459;DHT22;10891;49.350;19.386;2023-04-06T10:42:35;2.10;99.90
21459;DHT22;10891;49.350;19.386;2023-04-06T10:45:05;1.90;99.90
21459;DHT22;10891;49.350;19.386;2023-04-06T10:47:39;2.10;99.90
21459;DHT22;10891;49.350;19.386;2023-04-06T10:50:07;2.20;99.90
21459;DHT22;10891;49.350;19.386;2023-04-06T10:52:34;1.70;99.90
21459;DHT22;10891;49.350;19.386;2023-04-06T10:55:01;1.90;99.90
21459;DHT22;10891;49.350;19.386;2023-04-06T10:57:30;1.40;99.90
21459;DHT22;10891;49.350;19.386;2023-04-06T10:59:58;1.60;99.90
21459;DHT22;10891;49.350;19.386;2023-04-06T11:02:26;1.40;99.90
21459;DHT22;10891;49.350;19.386;2023-04-06T11:04:56;1.50;99.90
21459;DHT22;10891;49.350;19.386;2023-04-06T11:07:24;1.00;99.90
21459;DHT22;10891;49.350;19.386;2023-04-06T11:09:51;1.30;99.90
21459;DHT22;10891;49.350;19.386;2023-04-06T11:12:22;1.50;99.90
21459;DHT22;10891;49.350;19.386;2023-04-06T11:14:56;1.50;99.90
21459;DHT22;10891;49.350;19.386;2023-04-06T11:17:28;1.30;99.90
21459;DHT22;10891;49.350;19.386;2023-04-06T11:19:58;1.50;99.90
21459;DHT22;10891;49.350;19.386;2023-04-06T11:22:26;2.20;99.90
21459;DHT22;10891;49.350;19.386;2023-04-06T11:25:04;2.10;99.90
21459;DHT22;10891;49.350;19.386;2023-04-06T11:27:33;2.00;99.90
21459;DHT22;10891;49.350;19.386;2023-04-06T11:30:03;1.60;99.90
21459;DHT22;10891;49.350;19.386;2023-04-06T11:32:39;1.20;99.90
21459;DHT22;10891;49.350;19.386;2023-04-06T11:35:07;1.00;99.90
21459;DHT22;10891;49.350;19.386;2023-04-06T11:37:34;0.80;99.90
21459;DHT22;10891;49.350;19.386;2023-04-06T11:40:01;0.70;99.90
21459;DHT22;10891;49.350;19.386;2023-04-06T11:42:29;0.30;99.90
21459;DHT22;10891;49.350;19.386;2023-04-06T11:44:57;0.00;99.90
21459;DHT22;10891;49.350;19.386;2023-04-06T11:47:29;0.10;99.90
21459;DHT22;10891;49.350;19.386;2023-04-06T11:50:05;0.00;99.90
21459;DHT22;10891;49.350;19.386;2023-04-06T11:52:34;-0.20;99.90
21459;DHT22;10891;49.350;19.386;2023-04-06T11:55:11;-0.30;99.90
21459;DHT22;10891;49.350;19.386;2023-04-06T11:57:39;-0.60;99.90
21459;DHT22;10891;49.350;19.386;2023-04-06T12:00:07;-0.50;99.90
21459;DHT22;10891;49.350;19.386;2023-04-06T12:02:36;-0.70;99.90
21459;DHT22;10891;49.350;19.386;2023-04-06T12:05:04;-0.70;99.90
21459;DHT22;10891;49.350;19.386;2023-04-06T12:07:32;-0.40;99.90
21459;DHT22;10891;49.350;19.386;2023-04-06T12:10:00;-0.40;99.90
21459;DHT22;10891;49.350;19.386;2023-04-06T12:12:28;-0.50;99.90
21459;DHT22;10891;49.350;19.386;2023-04-06T12:14:55;-0.60;99.90
21459;DHT22;10891;49.350;19.386;2023-04-06T12:17:23;-0.60;99.90
21459;DHT22;10891;49.350;19.386;2023-04-06T12:19:51;-0.70;99.90
21459;DHT22;10891;49.350;19.386;2023-04-06T12:22:19;-0.80;99.90
21459;DHT22;10891;49.350;19.386;2023-04-06T12:24:46;-0.80;99.90
21459;DHT22;10891;49.350;19.386;2023-04-06T12:27:13;-0.70;99.90
21459;DHT22;10891;49.350;19.386;2023-04-06T12:29:40;-0.70;99.90
21459;DHT22;10891;49.350;19.386;2023-04-06T12:32:07;-0.60;99.90
21459;DHT22;10891;49.350;19.386;2023-04-06T12:34:34;-0.60;99.90
21459;DHT22;10891;49.350;19.386;2023-04-06T12:37:03;-0.50;99.90
21459;DHT22;10891;49.350;19.386;2023-04-06T12:39:30;-0.50;99.90
21459;DHT22;10891;49.350;19.386;2023-04-06T12:41:57;-0.40;99.90
21459;DHT22;10891;49.350;19.386;2023-04-06T12:44:24;-0.40;99.90
21459;DHT22;10891;49.350;19.386;2023-04-06T12:46:51;-0.30;99.90
21459;DHT22;10891;49.350;19.386;2023-04-06T12:49:21;-0.60;99.90
21459;DHT22;10891;49.350;19.386;2023-04-06T12:51:48;-0.70;99.90
21459;DHT22;10891;49.350;19.386;2023-04-06T12:54:17;-0.50;99.90
21459;DHT22;10891;49.350;19.386;2023-04-06T12:56:46;-0.60;99.90
21459;DHT22;10891;49.350;19.386;2023-04-06T12:59:13;-0.70;99.90
21459;DHT22;10891;49.350;19.386;2023-04-06T13:01:40;-0.70;99.90
21459;DHT22;10891;49.350;19.386;2023-04-06T13:04:07;-0.50;99.90
21459;DHT22;10891;49.350;19.386;2023-04-06T13:06:34;-0.50;99.90
21459;DHT22;10891;49.350;19.386;2023-04-06T13:09:02;-0.60;99.90
21459;DHT22;10891;49.350;19.386;2023-04-06T13:11:32;-0.80;99.90
21459;DHT22;10891;49.350;19.386;2023-04-06T13:13:59;-0.80;99.90
21459;DHT22;10891;49.350;19.386;2023-04-06T13:16:26;-0.50;99.90
21459;DHT22;10891;49.350;19.386;2023-04-06T13:18:53;-0.50;99.90
21459;DHT22;10891;49.350;19.386;2023-04-06T13:21:20;-0.50;99.90
21459;DHT22;10891;49.350;19.386;2023-04-06T13:23:48;-0.50;99.90
21459;DHT22;10891;49.350;19.386;2023-04-06T13:26:15;-0.40;99.90
21459;DHT22;10891;49.350;19.386;2023-04-06T13:28:44;-0.50;99.90
21459;DHT22;10891;49.350;19.386;2023-04-06T13:31:11;-0.60;99.90
21459;DHT22;10891;49.350;19.386;2023-04-06T13:33:38;-0.50;99.90
21459;DHT22;10891;49.350;19.386;2023-04-06T13:36:07;-0.40;99.90
21459;DHT22;10891;49.350;19.386;2023-04-06T13:38:34;-0.30;99.90
21459;DHT22;10891;49.350;19.386;2023-04-06T13:41:01;-0.30;99.90
21459;DHT22;10891;49.350;19.386;2023-04-06T13:43:28;-0.20;99.90
21459;DHT22;10891;49.350;19.386;2023-04-06T13:45:57;-0.30;99.90
21459;DHT22;10891;49.350;19.386;2023-04-06T13:48:26;-0.30;99.90
21459;DHT22;10891;49.350;19.386;2023-04-06T13:50:53;-0.30;99.90
21459;DHT22;10891;49.350;19.386;2023-04-06T13:53:20;-0.30;99.90
21459;DHT22;10891;49.350;19.386;2023-04-06T13:55:53;-0.30;99.90
21459;DHT22;10891;49.350;19.386;2023-04-06T13:58:19;-0.30;99.90
21459;DHT22;10891;49.350;19.386;2023-04-06T14:00:47;-0.10;99.90
21459;DHT22;10891;49.350;19.386;2023-04-06T14:03:15;-0.30;99.90
21459;DHT22;10891;49.350;19.386;2023-04-06T14:05:42;-0.30;99.90
21459;DHT22;10891;49.350;19.386;2023-04-06T14:08:09;-0.30;99.90
21459;DHT22;10891;49.350;19.386;2023-04-06T14:10:40;-0.30;99.90
21459;DHT22;10891;49.350;19.386;2023-04-06T14:13:07;-0.30;99.90
21459;DHT22;10891;49.350;19.386;2023-04-06T14:15:34;-0.10;99.90
21459;DHT22;10891;49.350;19.386;2023-04-06T14:18:01;-0.10;99.90
21459;DHT22;10891;49.350;19.386;2023-04-06T14:20:30;0.00;99.90
21459;DHT22;10891;49.350;19.386;2023-04-06T14:22:59;0.00;99.90
21459;DHT22;10891;49.350;19.386;2023-04-06T14:25:26;-0.20;99.90
21459;DHT22;10891;49.350;19.386;2023-04-06T14:27:53;-0.30;99.90
21459;DHT22;10891;49.350;19.386;2023-04-06T14:30:20;-0.20;99.90
21459;DHT22;10891;49.350;19.386;2023-04-06T14:32:47;-0.20;99.90
21459;DHT22;10891;49.350;19.386;2023-04-06T14:35:14;-0.20;99.90
21459;DHT22;10891;49.350;19.386;2023-04-06T14:37:42;-0.20;99.90
21459;DHT22;10891;49.350;19.386;2023-04-06T14:40:10;-0.30;99.90
21459;DHT22;10891;49.350;19.386;2023-04-06T14:42:37;0.10;99.90
21459;DHT22;10891;49.350;19.386;2023-04-06T14:45:06;0.00;99.90
21459;DHT22;10891;49.350;19.386;2023-04-06T14:47:33;-0.40;99.90
21459;DHT22;10891;49.350;19.386;2023-04-06T14:50:00;-0.30;99.90
21459;DHT22;10891;49.350;19.386;2023-04-06T14:52:27;-0.40;99.90
21459;DHT22;10891;49.350;19.386;2023-04-06T14:54:55;-0.50;99.90
21459;DHT22;10891;49.350;19.386;2023-04-06T14:57:22;-0.50;99.90
21459;DHT22;10891;49.350;19.386;2023-04-06T14:59:49;-0.50;99.90
21459;DHT22;10891;49.350;19.386;2023-04-06T15:02:19;-0.30;99.90
21459;DHT22;10891;49.350;19.386;2023-04-06T15:04:46;-0.20;99.90
21459;DHT22;10891;49.350;19.386;2023-04-06T15:07:14;-0.30;99.90
21459;DHT22;10891;49.350;19.386;2023-04-06T15:09:42;0.00;99.90
21459;DHT22;10891;49.350;19.386;2023-04-06T15:12:10;0.20;99.90
21459;DHT22;10891;49.350;19.386;2023-04-06T15:14:38;0.40;99.90
21459;DHT22;10891;49.350;19.386;2023-04-06T15:17:05;0.10;99.90
21459;DHT22;10891;49.350;19.386;2023-04-06T15:19:32;0.10;99.90
21459;DHT22;10891;49.350;19.386;2023-04-06T15:22:00;0.00;99.90
21459;DHT22;10891;49.350;19.386;2023-04-06T15:24:27;-0.10;99.90